createdAt,value
2018-06-08T00:00:13.731Z,105.10
2018-06-08T00:02:42.737Z,111.73
2018-06-08T00:05:11.761Z,115.23
2018-06-08T00:07:40.777Z,106.57
2018-06-08T00:10:09.917Z,111.43
2018-06-08T00:12:38.920Z,101.57
2018-06-08T00:15:07.890Z,103.70
2018-06-08T00:17:37.102Z,109.60
2018-06-08T00:20:06.160Z,105.63
2018-06-08T00:22:35.176Z,114.53
2018-06-08T00:25:04.208Z,107.83
2018-06-08T00:27:33.200Z,108.63
2018-06-08T00:30:02.225Z,110.40
2018-06-08T00:32:31.193Z,121.33
2018-06-08T00:35:00.222Z,116.47
2018-06-08T00:37:29.198Z,113.97
2018-06-08T00:39:58.204Z,114.97
2018-06-08T00:42:27.032Z,115.93
2018-06-08T00:44:55.906Z,114.57
2018-06-08T00:47:24.915Z,112.33
2018-06-08T00:49:53.924Z,108.87
2018-06-08T00:52:22.896Z,104.87
2018-06-08T00:54:51.994Z,110.03
2018-06-08T00:57:20.994Z,110.80
2018-06-08T00:59:50.002Z,113.83
2018-06-08T01:02:18.972Z,111.80
2018-06-08T01:04:47.964Z,105.63
2018-06-08T01:07:17.064Z,97.53
2018-06-08T01:09:46.054Z,114.07
2018-06-08T01:12:15.028Z,102.03
2018-06-08T01:14:44.073Z,105.10
2018-06-08T01:17:13.106Z,105.57
2018-06-08T01:19:42.103Z,98.57
2018-06-08T01:22:11.120Z,105.90
2018-06-08T01:24:40.102Z,106.10
2018-06-08T01:27:09.198Z,99.37
2018-06-08T01:29:38.293Z,113.77
2018-06-08T01:32:07.304Z,98.10
2018-06-08T01:34:36.288Z,107.93
2018-06-08T01:37:05.287Z,105.13
2018-06-08T01:39:34.324Z,106.57
2018-06-08T01:42:03.376Z,107.73
2018-06-08T01:44:32.325Z,95.37
2018-06-08T01:47:01.306Z,110.47
2018-06-08T01:49:30.353Z,113.00
2018-06-08T01:51:59.375Z,104.83
2018-06-08T01:54:28.334Z,106.87
2018-06-08T01:56:57.301Z,119.40
2018-06-08T01:59:26.319Z,119.27
2018-06-08T02:01:55.337Z,112.60
2018-06-08T02:04:24.307Z,123.93
2018-06-08T02:06:53.409Z,105.83
2018-06-08T02:09:22.503Z,121.27
2018-06-08T02:11:51.517Z,114.27
2018-06-08T02:14:20.595Z,123.67
2018-06-08T02:16:49.615Z,114.93
2018-06-08T02:19:18.711Z,112.33
2018-06-08T02:21:47.769Z,112.90
2018-06-08T02:24:16.757Z,115.07
2018-06-08T02:26:45.845Z,118.53
2018-06-08T02:29:14.889Z,118.57
2018-06-08T02:31:43.890Z,115.17
2018-06-08T02:34:12.958Z,117.43
2018-06-08T02:36:41.966Z,119.47
2018-06-08T02:39:11.107Z,109.30
2018-06-08T02:41:40.106Z,126.90
2018-06-08T02:44:09.072Z,123.23
2018-06-08T02:46:38.103Z,132.87
2018-06-08T02:49:07.243Z,116.70
2018-06-08T02:51:36.276Z,114.80
2018-06-08T02:54:05.296Z,114.07
2018-06-08T02:56:34.279Z,125.73
2018-06-08T02:59:03.310Z,118.10
2018-06-08T03:01:32.361Z,111.70
2018-06-08T03:04:01.337Z,127.73
2018-06-08T03:06:30.302Z,120.57
2018-06-08T03:08:59.288Z,113.80
2018-06-08T03:11:28.362Z,114.40
2018-06-08T03:13:57.344Z,107.00
2018-06-08T03:16:26.311Z,124.63
2018-06-08T03:18:55.335Z,115.33
2018-06-08T03:21:24.350Z,122.93
2018-06-08T03:23:53.307Z,124.17
2018-06-08T03:26:22.273Z,121.47
2018-06-08T03:28:51.329Z,126.13
2018-06-08T03:31:20.342Z,119.17
2018-06-08T03:33:49.313Z,134.83
2018-06-08T03:36:18.420Z,116.47
2018-06-08T03:38:47.401Z,117.73
2018-06-08T03:41:16.584Z,129.87
2018-06-08T03:43:45.677Z,118.50
2018-06-08T03:46:14.733Z,133.90
2018-06-08T03:48:43.453Z,134.60
2018-06-08T03:51:12.389Z,130.83
2018-06-08T03:53:41.445Z,140.33
2018-06-08T03:56:10.408Z,129.87
2018-06-08T03:58:39.397Z,127.60
2018-06-08T04:01:08.380Z,124.60
2018-06-08T04:03:37.524Z,142.40
2018-06-08T04:06:06.620Z,140.53
2018-06-08T04:08:35.677Z,134.63
2018-06-08T04:11:04.498Z,136.53
2018-06-08T04:13:33.409Z,134.57
2018-06-08T04:16:02.394Z,134.57
2018-06-08T04:18:31.388Z,137.10
2018-06-08T04:21:00.362Z,138.60
2018-06-08T04:23:29.380Z,137.13
2018-06-08T04:25:58.434Z,144.40
2018-06-08T04:28:27.422Z,137.67
2018-06-08T04:30:56.420Z,141.93
2018-06-08T04:33:25.543Z,154.37
2018-06-08T04:35:54.502Z,153.90
2018-06-08T04:38:23.468Z,152.77
2018-06-08T04:40:52.700Z,144.40
2018-06-08T04:43:21.724Z,150.17
2018-06-08T04:45:50.724Z,148.50
2018-06-08T04:48:19.707Z,157.73
2018-06-08T04:50:48.695Z,145.63
2018-06-08T04:53:17.716Z,157.13
2018-06-08T04:55:46.680Z,144.97
2018-06-08T04:58:15.665Z,142.57
2018-06-08T05:00:44.669Z,157.00
2018-06-08T05:03:13.693Z,154.20
2018-06-08T05:05:42.688Z,159.30
2018-06-08T05:08:11.652Z,151.80
2018-06-08T05:10:40.659Z,152.33
2018-06-08T05:13:09.696Z,162.40
2018-06-08T05:15:38.666Z,160.47
2018-06-08T05:18:07.686Z,169.30
2018-06-08T05:20:36.768Z,173.40
2018-06-08T05:23:05.818Z,162.87
2018-06-08T05:25:34.862Z,163.00
2018-06-08T05:28:03.848Z,160.67
2018-06-08T05:30:32.852Z,154.83
2018-06-08T05:33:01.883Z,159.03
2018-06-08T05:35:30.878Z,162.87
2018-06-08T05:37:59.868Z,148.80
2018-06-08T05:40:28.864Z,162.17
2018-06-08T05:42:57.880Z,150.37
2018-06-08T05:45:26.954Z,157.87
2018-06-08T05:47:55.948Z,162.37
2018-06-08T05:50:24.987Z,164.77
2018-06-08T05:52:53.976Z,164.13
2018-06-08T05:55:22.992Z,168.03
2018-06-08T05:57:51.942Z,179.70
2018-06-08T06:00:20.927Z,173.60
2018-06-08T06:02:49.975Z,170.23
2018-06-08T06:05:19.084Z,174.20
2018-06-08T06:07:48.082Z,171.20
2018-06-08T06:10:17.089Z,173.30
2018-06-08T06:12:46.126Z,171.43
2018-06-08T06:15:15.120Z,166.80
2018-06-08T06:17:44.274Z,165.63
2018-06-08T06:20:13.252Z,163.27
2018-06-08T06:22:42.235Z,154.40
2018-06-08T06:25:11.232Z,153.37
2018-06-08T06:27:40.209Z,154.13
2018-06-08T06:30:09.249Z,163.73
2018-06-08T06:32:38.215Z,155.40
2018-06-08T06:35:06.937Z,147.37
2018-06-08T06:37:35.881Z,146.30
2018-06-08T06:40:04.870Z,133.60
2018-06-08T06:42:33.833Z,148.63
2018-06-08T06:45:02.978Z,150.90
2018-06-08T06:47:31.990Z,142.80
2018-06-08T06:50:00.949Z,137.80
2018-06-08T06:52:29.961Z,128.97
2018-06-08T06:54:58.945Z,141.57
2018-06-08T06:57:27.963Z,137.07
2018-06-08T06:59:56.913Z,141.17
2018-06-08T07:02:25.934Z,133.10
2018-06-08T07:04:54.981Z,143.63
2018-06-08T07:07:23.969Z,145.97
2018-06-08T07:09:52.677Z,140.50
2018-06-08T07:12:21.797Z,153.63
2018-06-08T07:14:50.557Z,155.80
2018-06-08T07:17:19.560Z,153.10
2018-06-08T07:19:48.544Z,149.87
2018-06-08T07:22:20.305Z,149.47
2018-06-08T07:24:49.535Z,148.87
2018-06-08T07:27:18.537Z,154.13
2018-06-08T07:29:47.545Z,160.13
2018-06-08T07:32:16.540Z,152.57
2018-06-08T07:34:45.620Z,158.07
2018-06-08T07:37:14.609Z,164.67
2018-06-08T07:39:43.574Z,159.27
2018-06-08T07:42:12.576Z,143.17
2018-06-08T07:44:41.366Z,149.67
2018-06-08T07:47:10.245Z,157.80
2018-06-08T07:49:39.270Z,150.87
2018-06-08T07:52:08.276Z,150.83
2018-06-08T07:54:37.290Z,162.70
2018-06-08T07:57:06.716Z,156.73
2018-06-08T07:59:35.845Z,151.27
2018-06-08T08:02:04.834Z,160.57
2018-06-08T08:04:33.882Z,164.67
2018-06-08T08:07:02.894Z,151.93
2018-06-08T08:09:31.862Z,147.20
2018-06-08T08:12:00.902Z,143.70
2018-06-08T08:14:30.022Z,141.17
2018-06-08T08:16:59.118Z,134.50
2018-06-08T08:19:28.118Z,141.00
2018-06-08T08:21:57.120Z,138.03
2018-06-08T08:24:26.264Z,140.83
2018-06-08T08:26:55.348Z,138.87
2018-06-08T08:29:24.318Z,140.50
2018-06-08T08:31:53.325Z,134.43
2018-06-08T08:34:22.380Z,134.07
2018-06-08T08:36:51.576Z,132.33
2018-06-08T08:39:20.532Z,125.50
2018-06-08T08:41:49.528Z,135.80
2018-06-08T08:44:19.336Z,129.43
2018-06-08T08:46:48.376Z,134.80
2018-06-08T08:49:17.358Z,124.50
2018-06-08T08:51:46.417Z,138.47
2018-06-08T08:54:15.440Z,129.60
2018-06-08T08:56:44.520Z,129.73
2018-06-08T08:59:13.460Z,120.50
2018-06-08T09:01:42.448Z,114.30
2018-06-08T09:04:11.525Z,117.90
2018-06-08T09:06:40.530Z,115.20
2018-06-08T09:09:09.643Z,115.70
2018-06-08T09:11:38.653Z,117.97
2018-06-08T09:14:07.623Z,108.13
2018-06-08T09:16:36.678Z,115.20
2018-06-08T09:19:05.642Z,118.40
2018-06-08T09:21:34.664Z,111.27
2018-06-08T09:24:03.778Z,107.73
2018-06-08T09:26:32.853Z,102.40
2018-06-08T09:29:01.968Z,106.07
2018-06-08T09:31:30.921Z,108.77
2018-06-08T09:33:59.915Z,107.80
2018-06-08T09:36:28.905Z,97.13
2018-06-08T09:38:57.899Z,108.83
2018-06-08T09:41:26.891Z,103.00
2018-06-08T09:43:55.970Z,104.83
2018-06-08T09:46:24.993Z,103.67
2018-06-08T09:48:54.024Z,101.27
2018-06-08T09:51:23.042Z,103.67
2018-06-08T09:53:52.289Z,99.20
2018-06-08T09:56:21.326Z,107.53
2018-06-08T09:58:50.313Z,96.63
2018-06-08T10:01:19.319Z,94.00
2018-06-08T10:03:48.313Z,86.60
2018-06-08T10:06:17.358Z,88.47
2018-06-08T10:08:46.077Z,89.70
2018-06-08T10:11:14.988Z,90.50
2018-06-08T10:13:44.049Z,92.43
2018-06-08T10:16:13.096Z,96.00
2018-06-08T10:18:42.139Z,101.30
2018-06-08T10:21:11.163Z,96.13
2018-06-08T10:23:40.155Z,88.07
2018-06-08T10:26:09.177Z,92.43
2018-06-08T10:28:38.207Z,84.60
2018-06-08T10:31:07.923Z,93.83
2018-06-08T10:33:36.909Z,86.93
2018-06-08T10:36:06.101Z,92.47
2018-06-08T10:38:35.116Z,94.00
2018-06-08T10:41:04.081Z,89.30
2018-06-08T10:43:33.087Z,95.90
2018-06-08T10:46:01.885Z,89.13
2018-06-08T10:48:30.805Z,88.27
2018-06-08T10:50:59.797Z,82.53
2018-06-08T10:53:28.963Z,89.33
2018-06-08T10:55:58.029Z,82.43
2018-06-08T10:58:27.026Z,82.47
2018-06-08T11:00:56.012Z,87.77
2018-06-08T11:03:25.003Z,90.33
2018-06-08T11:05:54.027Z,84.30
2018-06-08T11:08:23.002Z,80.73
2018-06-08T11:10:51.978Z,80.10
2018-06-08T11:13:20.976Z,77.90
2018-06-08T11:15:49.665Z,75.30
2018-06-08T11:18:18.612Z,80.07
2018-06-08T11:20:47.684Z,74.37
2018-06-08T11:23:16.704Z,76.27
2018-06-08T11:25:45.720Z,73.13
2018-06-08T11:28:14.748Z,78.30
2018-06-08T11:30:43.730Z,74.27
2018-06-08T11:33:12.698Z,75.57
2018-06-08T11:35:41.732Z,76.73
2018-06-08T11:38:10.840Z,69.67
2018-06-08T11:40:39.822Z,74.93
2018-06-08T11:43:08.845Z,77.13
2018-06-08T11:45:37.849Z,69.77
2018-06-08T11:48:06.861Z,69.73
2018-06-08T11:53:14.048Z,68.23
2018-06-08T11:55:43.045Z,72.70
2018-06-08T11:58:12.083Z,70.43
2018-06-08T12:00:41.074Z,77.67
2018-06-08T12:03:10.082Z,74.90
2018-06-08T12:05:39.103Z,71.07
2018-06-08T12:08:08.142Z,78.93
2018-06-08T12:10:37.118Z,74.77
2018-06-08T12:13:06.114Z,66.53
2018-06-08T12:15:35.265Z,67.20
2018-06-08T12:18:04.306Z,68.73
2018-06-08T12:20:33.312Z,65.73
2018-06-08T12:23:02.288Z,64.33
2018-06-08T12:25:31.508Z,71.50
2018-06-08T12:28:00.624Z,76.80
2018-06-08T12:30:29.588Z,77.70
2018-06-08T12:32:58.540Z,73.30
2018-06-08T12:35:27.519Z,70.63
2018-06-08T12:37:56.646Z,70.77
2018-06-08T12:40:25.620Z,63.70
2018-06-08T12:42:54.630Z,60.80
2018-06-08T12:45:23.635Z,67.20
2018-06-08T12:47:52.792Z,63.43
2018-06-08T12:50:21.764Z,62.37
2018-06-08T12:52:50.740Z,55.67
2018-06-08T12:55:19.740Z,62.03
2018-06-08T12:57:48.732Z,63.37
2018-06-08T13:00:17.752Z,60.23
2018-06-08T13:02:46.894Z,61.63
2018-06-08T13:05:15.888Z,61.97
2018-06-08T13:07:44.934Z,60.67
2018-06-08T13:10:13.962Z,64.53
2018-06-08T13:12:42.969Z,52.93
2018-06-08T13:15:12.230Z,56.87
2018-06-08T13:17:41.326Z,56.40
2018-06-08T13:20:10.422Z,51.10
2018-06-08T13:22:39.402Z,54.33
2018-06-08T13:25:08.437Z,47.93
2018-06-08T13:27:37.513Z,50.03
2018-06-08T13:30:06.524Z,50.10
2018-06-08T13:32:35.528Z,54.13
2018-06-08T13:35:04.532Z,47.10
2018-06-08T13:37:33.567Z,48.63
2018-06-08T13:40:02.560Z,50.80
2018-06-08T13:42:31.533Z,48.40
2018-06-08T13:45:00.533Z,49.50
2018-06-08T13:47:29.527Z,46.53
2018-06-08T13:49:58.609Z,47.37
2018-06-08T13:52:27.592Z,49.03
2018-06-08T13:54:56.589Z,48.67
2018-06-08T13:57:25.325Z,46.80
2018-06-08T13:59:54.279Z,49.13
2018-06-08T14:02:23.014Z,52.73
2018-06-08T14:04:51.978Z,49.23
2018-06-08T14:07:20.690Z,53.80
2018-06-08T14:09:49.625Z,55.37
2018-06-08T14:12:18.667Z,52.10
2018-06-08T14:14:47.638Z,48.80
2018-06-08T14:17:16.647Z,48.27
2018-06-08T14:19:45.658Z,47.03
2018-06-08T14:22:14.644Z,46.27
2018-06-08T14:24:43.600Z,47.90
2018-06-08T14:27:12.606Z,44.93
2018-06-08T14:29:41.616Z,43.07
2018-06-08T14:32:10.580Z,43.63
2018-06-08T14:34:39.580Z,40.90
2018-06-08T14:37:08.543Z,36.37
2018-06-08T14:39:37.589Z,34.77
2018-06-08T14:42:06.580Z,30.37
2018-06-08T14:44:35.578Z,24.90
2018-06-08T14:47:04.670Z,21.90
2018-06-08T14:49:33.761Z,23.93
2018-06-08T14:52:03.506Z,22.73
2018-06-08T14:54:32.492Z,20.07
2018-06-08T14:57:01.466Z,19.17
2018-06-08T14:59:30.492Z,19.70
2018-06-08T15:01:59.468Z,23.37
2018-06-08T15:04:28.478Z,23.90
2018-06-08T15:06:57.522Z,26.53
2018-06-08T15:09:26.614Z,21.73
2018-06-08T15:11:55.628Z,24.20
2018-06-08T15:14:24.638Z,23.53
2018-06-08T15:16:53.676Z,24.60
2018-06-08T15:19:22.815Z,28.00
2018-06-08T15:21:51.842Z,26.57
2018-06-08T15:24:20.817Z,29.17
2018-06-08T15:26:49.801Z,26.43
2018-06-08T15:29:18.860Z,28.13
2018-06-08T15:31:47.880Z,28.77
2018-06-08T15:34:16.887Z,27.97
2018-06-08T15:36:45.873Z,24.20
2018-06-08T15:39:14.854Z,25.17
2018-06-08T15:41:43.904Z,24.77
2018-06-08T15:44:12.947Z,27.27
2018-06-08T15:46:42.004Z,22.70
2018-06-08T15:49:11.029Z,21.00
2018-06-08T15:51:40.144Z,23.00
2018-06-08T15:54:09.230Z,20.33
2018-06-08T15:56:38.218Z,21.53
2018-06-08T15:59:07.525Z,20.17
2018-06-08T16:01:36.564Z,21.27
2018-06-08T16:04:05.770Z,18.67
2018-06-08T16:06:34.765Z,23.13
2018-06-08T16:09:04.356Z,22.63
2018-06-08T16:11:33.482Z,26.30
2018-06-08T16:14:02.498Z,21.80
2018-06-08T16:16:31.529Z,24.30
2018-06-08T16:19:00.572Z,23.87
2018-06-08T16:21:29.631Z,27.43
2018-06-08T16:23:58.640Z,26.97
2018-06-08T16:26:27.334Z,24.50
2018-06-08T16:28:56.262Z,25.90
2018-06-08T16:31:25.252Z,28.27
2018-06-08T16:33:54.254Z,25.37
2018-06-08T16:36:23.361Z,28.17
2018-06-08T16:38:52.373Z,32.10
2018-06-08T16:41:21.403Z,28.40
2018-06-08T16:43:50.378Z,30.97
2018-06-08T16:46:19.359Z,30.97
2018-06-08T16:48:48.346Z,29.30
2018-06-08T16:51:17.351Z,31.37
2018-06-08T16:53:46.362Z,30.13
2018-06-08T16:56:15.532Z,32.27
2018-06-08T16:58:44.662Z,34.20
2018-06-08T17:01:13.748Z,35.23
2018-06-08T17:03:42.780Z,35.77
2018-06-08T17:06:11.826Z,37.40
2018-06-08T17:08:40.840Z,36.67
2018-06-08T17:11:09.906Z,37.57
2018-06-08T17:13:38.903Z,41.93
2018-06-08T17:16:07.953Z,37.37
2018-06-08T17:18:36.951Z,39.23
2018-06-08T17:21:05.986Z,41.97
2018-06-08T17:23:35.117Z,41.40
2018-06-08T17:26:04.209Z,39.17
2018-06-08T17:28:33.365Z,40.30
2018-06-08T17:31:02.442Z,37.90
2018-06-08T17:33:31.406Z,35.13
2018-06-08T17:36:00.442Z,35.47
2018-06-08T17:38:30.223Z,39.23
2018-06-08T17:40:59.256Z,34.93
2018-06-08T17:43:28.257Z,34.87
2018-06-08T17:45:57.234Z,34.13
2018-06-08T17:48:26.263Z,34.97
2018-06-08T17:50:55.277Z,34.00
2018-06-08T17:53:24.291Z,29.27
2018-06-08T17:55:53.305Z,26.93
2018-06-08T17:58:22.396Z,30.70
2018-06-08T18:00:51.450Z,33.57
2018-06-08T18:03:20.427Z,31.10
2018-06-08T18:05:49.444Z,30.23
2018-06-08T18:08:18.449Z,28.33
2018-06-08T18:10:47.525Z,28.57
2018-06-08T18:13:16.531Z,27.87
2018-06-08T18:15:45.549Z,33.07
2018-06-08T18:18:14.589Z,33.30
2018-06-08T18:20:43.640Z,39.00
2018-06-08T18:23:12.651Z,46.07
2018-06-08T18:25:41.669Z,46.80
2018-06-08T18:28:10.771Z,44.47
2018-06-08T18:30:39.697Z,45.37
2018-06-08T18:33:08.632Z,44.77
2018-06-08T18:35:37.628Z,48.47
2018-06-08T18:38:06.662Z,42.23
2018-06-08T18:40:35.657Z,46.73
2018-06-08T18:43:04.696Z,38.73
2018-06-08T18:45:33.690Z,39.23
2018-06-08T18:48:02.737Z,39.50
2018-06-08T18:50:31.760Z,34.27
2018-06-08T18:53:00.762Z,40.00
2018-06-08T18:55:29.936Z,35.27
2018-06-08T18:57:58.958Z,34.27
2018-06-08T19:00:27.962Z,29.70
2018-06-08T19:02:56.976Z,33.87
2018-06-08T19:05:26.022Z,34.37
2018-06-08T19:07:55.020Z,33.10
2018-06-08T19:10:24.113Z,32.73
2018-06-08T19:12:53.152Z,33.47
2018-06-08T19:15:22.138Z,31.43
2018-06-08T19:17:51.189Z,37.07
2018-06-08T19:20:20.206Z,39.07
2018-06-08T19:22:50.086Z,44.53
2018-06-08T19:25:19.166Z,46.37
2018-06-08T19:27:48.166Z,46.60
2018-06-08T19:30:17.282Z,48.47
2018-06-08T19:32:46.321Z,45.93
2018-06-08T19:35:15.363Z,44.97
2018-06-08T19:37:44.467Z,44.30
2018-06-08T19:40:13.514Z,46.23
2018-06-08T19:42:42.497Z,50.73
2018-06-08T19:45:11.548Z,44.33
2018-06-08T19:47:40.637Z,47.87
2018-06-08T19:50:09.693Z,48.43
2018-06-08T19:52:38.716Z,48.33
2018-06-08T19:55:07.708Z,51.20
2018-06-08T19:57:36.705Z,49.43
2018-06-08T20:00:05.794Z,47.13
2018-06-08T20:02:34.834Z,48.07
2018-06-08T20:05:03.882Z,46.17
2018-06-08T20:07:32.995Z,47.43
2018-06-08T20:10:02.065Z,46.90
2018-06-08T20:12:31.557Z,47.73
2018-06-08T20:15:00.895Z,46.73
2018-06-08T20:17:29.907Z,44.67
2018-06-08T20:19:59.006Z,43.53
2018-06-08T20:22:28.943Z,47.70
2018-06-08T20:24:58.005Z,49.87
2018-06-08T20:27:27.338Z,54.50
2018-06-08T20:29:56.314Z,49.03
2018-06-08T20:32:25.424Z,52.17
2018-06-08T20:34:54.445Z,46.87
2018-06-08T20:37:23.717Z,51.70
2018-06-08T20:39:52.731Z,48.17
2018-06-08T20:42:21.782Z,50.20
2018-06-08T20:44:50.865Z,51.87
2018-06-08T20:47:19.958Z,48.37
2018-06-08T20:49:48.981Z,45.60
2018-06-08T20:52:18.055Z,54.57
2018-06-08T20:54:47.050Z,50.53
2018-06-08T20:57:24.645Z,47.33
2018-06-08T20:59:53.814Z,46.17
2018-06-08T21:02:23.008Z,50.43
2018-06-08T21:04:51.658Z,49.47
2018-06-08T21:07:20.692Z,53.87
2018-06-08T21:09:49.723Z,48.23
2018-06-08T21:12:18.731Z,52.60
2018-06-08T21:14:47.767Z,51.07
2018-06-08T21:17:16.749Z,54.63
2018-06-08T21:19:45.880Z,45.10
2018-06-08T21:22:14.891Z,53.10
2018-06-08T21:24:43.905Z,46.80
2018-06-08T21:27:12.906Z,46.23
2018-06-08T21:29:41.930Z,48.60
2018-06-08T21:32:10.907Z,48.20
2018-06-08T21:34:39.694Z,53.60
2018-06-08T21:37:08.593Z,52.17
2018-06-08T21:39:37.590Z,55.70
2018-06-08T21:42:06.665Z,52.80
2018-06-08T21:44:35.703Z,49.70
2018-06-08T21:47:04.714Z,51.20
2018-06-08T21:49:33.718Z,47.37
2018-06-08T21:52:02.740Z,51.13
2018-06-08T21:54:31.736Z,54.23
2018-06-08T21:57:00.698Z,51.53
2018-06-08T21:59:29.678Z,52.90
2018-06-08T22:01:58.734Z,58.20
2018-06-08T22:04:27.728Z,51.77
2018-06-08T22:06:56.861Z,47.60
2018-06-08T22:09:25.880Z,52.13
2018-06-08T22:11:54.942Z,48.80
2018-06-08T22:14:24.032Z,52.23
2018-06-08T22:16:53.006Z,51.37
2018-06-08T22:19:21.987Z,51.83
2018-06-08T22:21:51.016Z,56.93
2018-06-08T22:24:20.056Z,53.77
2018-06-08T22:26:49.052Z,56.43
2018-06-08T22:29:18.043Z,51.93
2018-06-08T22:31:47.058Z,58.17
2018-06-08T22:34:16.097Z,57.67
2018-06-08T22:36:45.066Z,55.13
2018-06-08T22:39:14.026Z,51.27
2018-06-08T22:41:43.170Z,56.83
2018-06-08T22:44:12.165Z,55.83
2018-06-08T22:46:41.154Z,51.87
2018-06-08T22:49:10.127Z,48.03
2018-06-08T22:51:39.134Z,54.07
2018-06-08T22:54:08.189Z,47.27
2018-06-08T22:56:37.173Z,53.70
2018-06-08T22:59:06.172Z,56.40
2018-06-08T23:01:35.217Z,44.87
2018-06-08T23:04:04.307Z,51.47
2018-06-08T23:06:33.275Z,53.53
2018-06-08T23:09:02.305Z,51.20
2018-06-08T23:11:31.269Z,49.27
2018-06-08T23:14:00.385Z,53.83
2018-06-08T23:16:29.353Z,50.43
2018-06-08T23:18:58.353Z,49.03
2018-06-08T23:21:27.341Z,53.10
2018-06-08T23:23:56.383Z,56.67
2018-06-08T23:26:25.425Z,53.03
2018-06-08T23:28:54.397Z,54.57
2018-06-08T23:31:23.357Z,51.67
2018-06-08T23:33:52.348Z,50.13
2018-06-08T23:36:21.325Z,51.73
2018-06-08T23:38:50.301Z,51.43
2018-06-08T23:41:19.265Z,54.53
2018-06-08T23:43:48.266Z,46.63
2018-06-08T23:46:17.247Z,49.67
2018-06-08T23:48:46.233Z,50.70
2018-06-08T23:51:15.205Z,50.63
2018-06-08T23:53:44.170Z,48.73
2018-06-08T23:56:13.153Z,55.80
2018-06-08T23:58:42.117Z,50.77
